sensor_id;sensor_type;location;lat;lon;timestamp;P1;durP1;ratioP1;P2;durP2;ratioP2
495;SDS011;39559;48.630;9.162;2022-09-09T00:05:04;8.00;;;4.00;;
495;SDS011;39559;48.630;9.162;2022-09-09T00:07:47;5.35;;;4.00;;
495;SDS011;39559;48.630;9.162;2022-09-09T00:10:23;6.35;;;4.43;;
495;SDS011;39559;48.630;9.162;2022-09-09T00:16:10;4.25;;;3.85;;
495;SDS011;39559;48.630;9.162;2022-09-09T00:21:16;8.82;;;4.28;;
495;SDS011;39559;48.630;9.162;2022-09-09T00:23:53;4.78;;;3.83;;
495;SDS011;39559;48.630;9.162;2022-09-09T00:26:38;4.30;;;3.78;;
495;SDS011;39559;48.630;9.162;2022-09-09T00:31:48;4.60;;;4.10;;
495;SDS011;39559;48.630;9.162;2022-09-09T00:34:19;5.70;;;4.15;;
495;SDS011;39559;48.630;9.162;2022-09-09T00:36:54;5.47;;;4.25;;
495;SDS011;39559;48.630;9.162;2022-09-09T00:39:31;6.28;;;3.95;;
495;SDS011;39559;48.630;9.162;2022-09-09T00:42:17;4.65;;;3.67;;
495;SDS011;39559;48.630;9.162;2022-09-09T00:45:02;5.38;;;4.18;;
495;SDS011;39559;48.630;9.162;2022-09-09T00:48:12;4.30;;;3.90;;
495;SDS011;39559;48.630;9.162;2022-09-09T00:50:42;7.40;;;4.30;;
495;SDS011;39559;48.630;9.162;2022-09-09T00:58:01;4.67;;;4.27;;
495;SDS011;39559;48.630;9.162;2022-09-09T01:00:27;6.50;;;4.43;;
495;SDS011;39559;48.630;9.162;2022-09-09T01:02:58;6.32;;;4.40;;
495;SDS011;39559;48.630;9.162;2022-09-09T01:11:20;6.18;;;4.25;;
495;SDS011;39559;48.630;9.162;2022-09-09T01:13:52;4.55;;;4.15;;
495;SDS011;39559;48.630;9.162;2022-09-09T01:16:31;4.70;;;4.20;;
495;SDS011;39559;48.630;9.162;2022-09-09T01:22:15;5.15;;;4.10;;
495;SDS011;39559;48.630;9.162;2022-09-09T01:27:16;4.90;;;4.00;;
495;SDS011;39559;48.630;9.162;2022-09-09T01:29:44;4.30;;;3.85;;
495;SDS011;39559;48.630;9.162;2022-09-09T01:35:07;5.10;;;3.67;;
495;SDS011;39559;48.630;9.162;2022-09-09T01:37:55;7.65;;;3.65;;
495;SDS011;39559;48.630;9.162;2022-09-09T01:40:21;4.75;;;3.92;;
495;SDS011;39559;48.630;9.162;2022-09-09T01:43:38;5.15;;;3.70;;
495;SDS011;39559;48.630;9.162;2022-09-09T01:46:04;4.20;;;3.80;;
495;SDS011;39559;48.630;9.162;2022-09-09T01:48:29;10.10;;;4.47;;
495;SDS011;39559;48.630;9.162;2022-09-09T01:50:56;7.25;;;4.00;;
495;SDS011;39559;48.630;9.162;2022-09-09T01:53:22;4.90;;;4.10;;
495;SDS011;39559;48.630;9.162;2022-09-09T02:07:40;5.07;;;4.03;;
495;SDS011;39559;48.630;9.162;2022-09-09T02:10:30;6.07;;;3.42;;
495;SDS011;39559;48.630;9.162;2022-09-09T02:13:04;5.90;;;4.20;;
495;SDS011;39559;48.630;9.162;2022-09-09T02:18:27;4.88;;;3.92;;
495;SDS011;39559;48.630;9.162;2022-09-09T02:20:59;4.60;;;3.80;;
495;SDS011;39559;48.630;9.162;2022-09-09T02:23:26;5.97;;;4.30;;
495;SDS011;39559;48.630;9.162;2022-09-09T02:25:55;4.25;;;3.85;;
495;SDS011;39559;48.630;9.162;2022-09-09T02:28:24;9.88;;;4.50;;
495;SDS011;39559;48.630;9.162;2022-09-09T02:31:26;4.05;;;3.63;;
495;SDS011;39559;48.630;9.162;2022-09-09T02:33:54;4.30;;;3.90;;
495;SDS011;39559;48.630;9.162;2022-09-09T02:36:42;4.10;;;3.70;;
495;SDS011;39559;48.630;9.162;2022-09-09T02:39:17;4.53;;;4.13;;
495;SDS011;39559;48.630;9.162;2022-09-09T02:41:43;4.83;;;4.20;;
495;SDS011;39559;48.630;9.162;2022-09-09T02:44:10;4.10;;;3.70;;
495;SDS011;39559;48.630;9.162;2022-09-09T02:49:11;4.00;;;3.60;;
495;SDS011;39559;48.630;9.162;2022-09-09T02:52:05;6.07;;;4.50;;
495;SDS011;39559;48.630;9.162;2022-09-09T02:58:05;5.68;;;4.10;;
495;SDS011;39559;48.630;9.162;2022-09-09T03:00:37;5.50;;;4.10;;
495;SDS011;39559;48.630;9.162;2022-09-09T03:03:08;6.32;;;4.03;;
495;SDS011;39559;48.630;9.162;2022-09-09T03:05:34;4.50;;;4.10;;
495;SDS011;39559;48.630;9.162;2022-09-09T03:08:01;7.93;;;4.10;;
495;SDS011;39559;48.630;9.162;2022-09-09T03:10:27;4.00;;;3.60;;
495;SDS011;39559;48.630;9.162;2022-09-09T03:12:53;4.93;;;3.90;;
495;SDS011;39559;48.630;9.162;2022-09-09T03:15:18;6.60;;;4.10;;
495;SDS011;39559;48.630;9.162;2022-09-09T03:19:19;11.07;;;4.13;;
495;SDS011;39559;48.630;9.162;2022-09-09T03:21:47;5.68;;;3.95;;
495;SDS011;39559;48.630;9.162;2022-09-09T03:24:13;4.90;;;4.50;;
495;SDS011;39559;48.630;9.162;2022-09-09T03:26:40;7.22;;;4.18;;
495;SDS011;39559;48.630;9.162;2022-09-09T03:29:10;8.38;;;3.97;;
495;SDS011;39559;48.630;9.162;2022-09-09T03:31:37;7.03;;;4.00;;
495;SDS011;39559;48.630;9.162;2022-09-09T03:34:04;6.25;;;4.22;;
495;SDS011;39559;48.630;9.162;2022-09-09T03:36:30;6.90;;;3.80;;
495;SDS011;39559;48.630;9.162;2022-09-09T03:38:57;6.70;;;3.60;;
495;SDS011;39559;48.630;9.162;2022-09-09T03:43:21;7.75;;;3.90;;
495;SDS011;39559;48.630;9.162;2022-09-09T03:45:48;6.63;;;3.80;;
495;SDS011;39559;48.630;9.162;2022-09-09T03:48:14;4.43;;;3.88;;
495;SDS011;39559;48.630;9.162;2022-09-09T03:50:48;4.63;;;3.80;;
495;SDS011;39559;48.630;9.162;2022-09-09T03:53:17;4.97;;;3.83;;
495;SDS011;39559;48.630;9.162;2022-09-09T03:55:46;6.07;;;4.20;;
495;SDS011;39559;48.630;9.162;2022-09-09T04:01:20;5.85;;;3.80;;
495;SDS011;39559;48.630;9.162;2022-09-09T04:03:45;5.75;;;3.72;;
495;SDS011;39559;48.630;9.162;2022-09-09T04:07:16;8.20;;;3.60;;
495;SDS011;39559;48.630;9.162;2022-09-09T04:09:42;9.10;;;5.17;;
495;SDS011;39559;48.630;9.162;2022-09-09T04:12:07;4.73;;;3.80;;
495;SDS011;39559;48.630;9.162;2022-09-09T04:14:33;5.73;;;4.10;;
495;SDS011;39559;48.630;9.162;2022-09-09T04:16:59;5.37;;;3.93;;
495;SDS011;39559;48.630;9.162;2022-09-09T04:19:25;4.25;;;3.85;;
495;SDS011;39559;48.630;9.162;2022-09-09T04:21:50;4.80;;;3.63;;
495;SDS011;39559;48.630;9.162;2022-09-09T04:24:16;4.57;;;4.07;;
495;SDS011;39559;48.630;9.162;2022-09-09T04:26:42;4.50;;;4.03;;
495;SDS011;39559;48.630;9.162;2022-09-09T04:31:15;4.38;;;3.70;;
495;SDS011;39559;48.630;9.162;2022-09-09T04:33:43;8.45;;;4.15;;
495;SDS011;39559;48.630;9.162;2022-09-09T04:36:09;6.90;;;4.00;;
495;SDS011;39559;48.630;9.162;2022-09-09T04:38:35;5.53;;;4.20;;
495;SDS011;39559;48.630;9.162;2022-09-09T04:41:01;5.03;;;3.95;;
495;SDS011;39559;48.630;9.162;2022-09-09T04:43:26;6.13;;;4.30;;
495;SDS011;39559;48.630;9.162;2022-09-09T04:45:52;4.43;;;3.80;;
495;SDS011;39559;48.630;9.162;2022-09-09T04:48:18;4.17;;;3.77;;
495;SDS011;39559;48.630;9.162;2022-09-09T04:50:53;8.75;;;3.92;;
495;SDS011;39559;48.630;9.162;2022-09-09T04:55:14;8.27;;;5.20;;
495;SDS011;39559;48.630;9.162;2022-09-09T04:57:40;5.70;;;4.70;;
495;SDS011;39559;48.630;9.162;2022-09-09T05:00:06;4.47;;;3.80;;
495;SDS011;39559;48.630;9.162;2022-09-09T05:02:36;8.27;;;4.35;;
495;SDS011;39559;48.630;9.162;2022-09-09T05:05:03;4.57;;;3.53;;
495;SDS011;39559;48.630;9.162;2022-09-09T05:07:30;4.47;;;3.80;;
495;SDS011;39559;48.630;9.162;2022-09-09T05:09:56;4.00;;;3.67;;
495;SDS011;39559;48.630;9.162;2022-09-09T05:12:22;6.57;;;4.00;;
495;SDS011;39559;48.630;9.162;2022-09-09T05:14:51;5.00;;;4.10;;
495;SDS011;39559;48.630;9.162;2022-09-09T05:19:10;4.30;;;3.90;;
495;SDS011;39559;48.630;9.162;2022-09-09T05:21:36;6.13;;;4.13;;
495;SDS011;39559;48.630;9.162;2022-09-09T05:24:02;4.93;;;4.23;;
495;SDS011;39559;48.630;9.162;2022-09-09T05:26:28;4.90;;;4.50;;
495;SDS011;39559;48.630;9.162;2022-09-09T05:28:54;6.78;;;4.50;;
495;SDS011;39559;48.630;9.162;2022-09-09T05:31:20;5.05;;;4.55;;
495;SDS011;39559;48.630;9.162;2022-09-09T05:33:46;4.67;;;4.17;;
495;SDS011;39559;48.630;9.162;2022-09-09T05:36:15;5.18;;;3.80;;
495;SDS011;39559;48.630;9.162;2022-09-09T05:38:43;5.28;;;4.22;;
495;SDS011;39559;48.630;9.162;2022-09-09T05:43:10;6.13;;;4.05;;
495;SDS011;39559;48.630;9.162;2022-09-09T05:45:35;4.47;;;4.07;;
495;SDS011;39559;48.630;9.162;2022-09-09T05:48:01;5.37;;;4.53;;
495;SDS011;39559;48.630;9.162;2022-09-09T05:50:26;4.33;;;3.87;;
495;SDS011;39559;48.630;9.162;2022-09-09T05:52:54;6.33;;;4.20;;
495;SDS011;39559;48.630;9.162;2022-09-09T05:55:19;5.47;;;4.10;;
495;SDS011;39559;48.630;9.162;2022-09-09T05:57:48;6.63;;;4.33;;
495;SDS011;39559;48.630;9.162;2022-09-09T06:00:14;4.82;;;3.78;;
495;SDS011;39559;48.630;9.162;2022-09-09T06:02:41;5.25;;;4.60;;
495;SDS011;39559;48.630;9.162;2022-09-09T06:07:07;4.90;;;4.40;;
495;SDS011;39559;48.630;9.162;2022-09-09T06:09:32;7.60;;;4.50;;
495;SDS011;39559;48.630;9.162;2022-09-09T06:11:58;5.53;;;4.10;;
495;SDS011;39559;48.630;9.162;2022-09-09T06:14:23;4.40;;;4.00;;
495;SDS011;39559;48.630;9.162;2022-09-09T06:16:50;5.47;;;4.50;;
495;SDS011;39559;48.630;9.162;2022-09-09T06:19:16;4.43;;;4.03;;
495;SDS011;39559;48.630;9.162;2022-09-09T06:21:42;6.20;;;4.40;;
495;SDS011;39559;48.630;9.162;2022-09-09T06:24:09;7.45;;;4.20;;
495;SDS011;39559;48.630;9.162;2022-09-09T06:26:39;5.75;;;5.10;;
495;SDS011;39559;48.630;9.162;2022-09-09T06:31:06;8.00;;;4.22;;
495;SDS011;39559;48.630;9.162;2022-09-09T06:33:34;6.25;;;4.35;;
495;SDS011;39559;48.630;9.162;2022-09-09T06:36:02;5.05;;;4.32;;
495;SDS011;39559;48.630;9.162;2022-09-09T06:38:31;4.40;;;4.00;;
495;SDS011;39559;48.630;9.162;2022-09-09T06:40:58;4.90;;;4.00;;
495;SDS011;39559;48.630;9.162;2022-09-09T06:43:25;7.53;;;5.38;;
495;SDS011;39559;48.630;9.162;2022-09-09T06:45:58;4.75;;;4.25;;
495;SDS011;39559;48.630;9.162;2022-09-09T06:48:25;4.88;;;4.28;;
495;SDS011;39559;48.630;9.162;2022-09-09T06:51:02;9.27;;;4.10;;
495;SDS011;39559;48.630;9.162;2022-09-09T06:55:03;4.80;;;4.15;;
495;SDS011;39559;48.630;9.162;2022-09-09T06:57:29;5.03;;;4.53;;
495;SDS011;39559;48.630;9.162;2022-09-09T06:59:54;7.20;;;4.63;;
495;SDS011;39559;48.630;9.162;2022-09-09T07:02:20;9.77;;;4.20;;
495;SDS011;39559;48.630;9.162;2022-09-09T07:04:46;5.25;;;4.18;;
495;SDS011;39559;48.630;9.162;2022-09-09T07:07:12;4.40;;;4.00;;
495;SDS011;39559;48.630;9.162;2022-09-09T07:09:40;6.00;;;4.00;;
495;SDS011;39559;48.630;9.162;2022-09-09T07:12:06;4.20;;;3.80;;
495;SDS011;39559;48.630;9.162;2022-09-09T07:14:31;4.70;;;4.10;;
495;SDS011;39559;48.630;9.162;2022-09-09T07:19:01;4.35;;;3.95;;
495;SDS011;39559;48.630;9.162;2022-09-09T07:21:28;5.80;;;4.70;;
495;SDS011;39559;48.630;9.162;2022-09-09T07:23:54;4.65;;;4.15;;
495;SDS011;39559;48.630;9.162;2022-09-09T07:26:22;4.30;;;3.90;;
495;SDS011;39559;48.630;9.162;2022-09-09T07:28:50;4.47;;;4.07;;
495;SDS011;39559;48.630;9.162;2022-09-09T07:31:20;4.35;;;3.95;;
495;SDS011;39559;48.630;9.162;2022-09-09T07:33:47;4.63;;;3.63;;
495;SDS011;39559;48.630;9.162;2022-09-09T07:36:17;4.60;;;3.92;;
495;SDS011;39559;48.630;9.162;2022-09-09T07:38:52;3.97;;;3.60;;
495;SDS011;39559;48.630;9.162;2022-09-09T07:42:59;8.50;;;4.10;;
495;SDS011;39559;48.630;9.162;2022-09-09T07:45:25;4.65;;;4.25;;
495;SDS011;39559;48.630;9.162;2022-09-09T07:47:53;4.43;;;3.80;;
495;SDS011;39559;48.630;9.162;2022-09-09T07:50:22;4.28;;;3.40;;
495;SDS011;39559;48.630;9.162;2022-09-09T07:52:49;4.78;;;3.40;;
495;SDS011;39559;48.630;9.162;2022-09-09T07:55:16;4.32;;;3.88;;
495;SDS011;39559;48.630;9.162;2022-09-09T07:57:41;3.90;;;3.00;;
495;SDS011;39559;48.630;9.162;2022-09-09T08:00:07;5.00;;;3.60;;
495;SDS011;39559;48.630;9.162;2022-09-09T08:02:33;3.42;;;2.97;;
495;SDS011;39559;48.630;9.162;2022-09-09T08:06:57;4.10;;;2.87;;
495;SDS011;39559;48.630;9.162;2022-09-09T08:09:24;4.60;;;3.20;;
495;SDS011;39559;48.630;9.162;2022-09-09T08:11:53;3.30;;;3.00;;
495;SDS011;39559;48.630;9.162;2022-09-09T08:14:21;4.32;;;3.83;;
495;SDS011;39559;48.630;9.162;2022-09-09T08:16:48;3.80;;;3.30;;
495;SDS011;39559;48.630;9.162;2022-09-09T08:19:15;3.50;;;3.20;;
495;SDS011;39559;48.630;9.162;2022-09-09T08:21:42;5.83;;;3.57;;
495;SDS011;39559;48.630;9.162;2022-09-09T08:24:10;4.33;;;3.27;;
495;SDS011;39559;48.630;9.162;2022-09-09T08:26:37;3.33;;;3.03;;
495;SDS011;39559;48.630;9.162;2022-09-09T08:30:54;3.67;;;3.20;;
495;SDS011;39559;48.630;9.162;2022-09-09T08:33:20;5.60;;;3.13;;
495;SDS011;39559;48.630;9.162;2022-09-09T08:35:51;7.63;;;4.20;;
495;SDS011;39559;48.630;9.162;2022-09-09T08:38:17;5.10;;;3.10;;
495;SDS011;39559;48.630;9.162;2022-09-09T08:40:43;3.30;;;3.00;;
495;SDS011;39559;48.630;9.162;2022-09-09T08:43:14;5.90;;;3.00;;
495;SDS011;39559;48.630;9.162;2022-09-09T08:46:06;3.93;;;3.30;;
495;SDS011;39559;48.630;9.162;2022-09-09T08:51:26;4.63;;;3.67;;
495;SDS011;39559;48.630;9.162;2022-09-09T08:54:52;5.87;;;3.10;;
495;SDS011;39559;48.630;9.162;2022-09-09T08:57:27;5.37;;;3.30;;
495;SDS011;39559;48.630;9.162;2022-09-09T08:59:56;4.57;;;3.60;;
495;SDS011;39559;48.630;9.162;2022-09-09T09:02:26;4.23;;;3.57;;
495;SDS011;39559;48.630;9.162;2022-09-09T09:05:18;4.67;;;3.27;;
495;SDS011;39559;48.630;9.162;2022-09-09T09:13:15;4.40;;;3.37;;
495;SDS011;39559;48.630;9.162;2022-09-09T09:15:44;3.93;;;3.30;;
495;SDS011;39559;48.630;9.162;2022-09-09T09:18:51;3.50;;;3.10;;
495;SDS011;39559;48.630;9.162;2022-09-09T09:26:44;5.40;;;3.30;;
495;SDS011;39559;48.630;9.162;2022-09-09T09:29:10;3.90;;;3.40;;
495;SDS011;39559;48.630;9.162;2022-09-09T09:31:54;5.50;;;3.23;;
495;SDS011;39559;48.630;9.162;2022-09-09T09:34:23;4.60;;;3.47;;
495;SDS011;39559;48.630;9.162;2022-09-09T09:36:59;3.40;;;2.80;;
495;SDS011;39559;48.630;9.162;2022-09-09T09:39:30;3.20;;;2.33;;
495;SDS011;39559;48.630;9.162;2022-09-09T09:42:51;4.63;;;2.43;;
495;SDS011;39559;48.630;9.162;2022-09-09T09:48:03;4.30;;;2.40;;
495;SDS011;39559;48.630;9.162;2022-09-09T09:50:31;4.57;;;2.60;;
495;SDS011;39559;48.630;9.162;2022-09-09T09:53:04;3.03;;;2.40;;
495;SDS011;39559;48.630;9.162;2022-09-09T09:55:46;2.70;;;2.50;;
495;SDS011;39559;48.630;9.162;2022-09-09T09:58:18;2.97;;;2.57;;
495;SDS011;39559;48.630;9.162;2022-09-09T10:00:49;3.80;;;3.07;;
495;SDS011;39559;48.630;9.162;2022-09-09T10:03:24;4.50;;;3.03;;
495;SDS011;39559;48.630;9.162;2022-09-09T10:06:45;4.20;;;3.33;;
495;SDS011;39559;48.630;9.162;2022-09-09T10:09:28;4.10;;;3.00;;
495;SDS011;39559;48.630;9.162;2022-09-09T10:17:22;6.00;;;3.10;;
495;SDS011;39559;48.630;9.162;2022-09-09T10:22:39;4.77;;;3.00;;
495;SDS011;39559;48.630;9.162;2022-09-09T10:30:47;7.40;;;3.07;;
495;SDS011;39559;48.630;9.162;2022-09-09T10:33:37;3.33;;;2.80;;
495;SDS011;39559;48.630;9.162;2022-09-09T10:36:21;3.43;;;2.63;;
495;SDS011;39559;48.630;9.162;2022-09-09T10:41:55;2.70;;;2.50;;
495;SDS011;39559;48.630;9.162;2022-09-09T10:50:09;3.60;;;2.90;;
495;SDS011;39559;48.630;9.162;2022-09-09T10:57:34;5.77;;;2.70;;
495;SDS011;39559;48.630;9.162;2022-09-09T11:00:05;3.00;;;2.70;;
495;SDS011;39559;48.630;9.162;2022-09-09T11:02:39;4.40;;;2.93;;
495;SDS011;39559;48.630;9.162;2022-09-09T11:05:14;4.13;;;2.87;;
495;SDS011;39559;48.630;9.162;2022-09-09T11:07:46;3.60;;;2.70;;
495;SDS011;39559;48.630;9.162;2022-09-09T11:10:36;3.93;;;2.90;;
495;SDS011;39559;48.630;9.162;2022-09-09T11:13:07;5.90;;;3.20;;
495;SDS011;39559;48.630;9.162;2022-09-09T11:15:45;3.67;;;2.90;;
495;SDS011;39559;48.630;9.162;2022-09-09T11:18:36;3.23;;;2.93;;
495;SDS011;39559;48.630;9.162;2022-09-09T11:21:07;5.03;;;3.27;;
495;SDS011;39559;48.630;9.162;2022-09-09T11:23:44;3.50;;;3.07;;
495;SDS011;39559;48.630;9.162;2022-09-09T11:26:21;4.03;;;3.50;;
495;SDS011;39559;48.630;9.162;2022-09-09T11:31:44;3.60;;;2.90;;
495;SDS011;39559;48.630;9.162;2022-09-09T11:37:43;3.45;;;2.85;;
495;SDS011;39559;48.630;9.162;2022-09-09T11:42:31;2.90;;;2.60;;
495;SDS011;39559;48.630;9.162;2022-09-09T11:44:57;3.40;;;2.50;;
495;SDS011;39559;48.630;9.162;2022-09-09T11:47:36;3.80;;;2.40;;
495;SDS011;39559;48.630;9.162;2022-09-09T11:52:40;2.33;;;2.13;;
495;SDS011;39559;48.630;9.162;2022-09-09T11:57:49;3.75;;;2.10;;
495;SDS011;39559;48.630;9.162;2022-09-09T12:00:46;2.23;;;2.03;;
495;SDS011;39559;48.630;9.162;2022-09-09T12:03:33;2.67;;;1.95;;
495;SDS011;39559;48.630;9.162;2022-09-09T12:06:31;3.95;;;2.30;;
495;SDS011;39559;48.630;9.162;2022-09-09T12:09:05;2.03;;;1.80;;
495;SDS011;39559;48.630;9.162;2022-09-09T12:11:36;2.70;;;1.90;;
495;SDS011;39559;48.630;9.162;2022-09-09T12:14:02;1.90;;;1.70;;
495;SDS011;39559;48.630;9.162;2022-09-09T12:16:35;2.50;;;1.90;;
495;SDS011;39559;48.630;9.162;2022-09-09T12:19:13;2.60;;;2.10;;
495;SDS011;39559;48.630;9.162;2022-09-09T12:27:05;2.30;;;2.10;;
495;SDS011;39559;48.630;9.162;2022-09-09T12:30:27;6.60;;;2.63;;
495;SDS011;39559;48.630;9.162;2022-09-09T12:33:02;3.00;;;2.33;;
495;SDS011;39559;48.630;9.162;2022-09-09T12:35:36;3.33;;;2.20;;
495;SDS011;39559;48.630;9.162;2022-09-09T12:38:03;2.70;;;2.30;;
495;SDS011;39559;48.630;9.162;2022-09-09T12:40:36;4.10;;;2.53;;
495;SDS011;39559;48.630;9.162;2022-09-09T12:43:15;3.27;;;2.40;;
495;SDS011;39559;48.630;9.162;2022-09-09T12:45:46;3.73;;;2.50;;
495;SDS011;39559;48.630;9.162;2022-09-09T12:48:15;2.93;;;2.67;;
495;SDS011;39559;48.630;9.162;2022-09-09T12:50:48;4.70;;;3.50;;
495;SDS011;39559;48.630;9.162;2022-09-09T12:54:21;4.00;;;2.83;;
495;SDS011;39559;48.630;9.162;2022-09-09T12:56:46;3.43;;;2.50;;
495;SDS011;39559;48.630;9.162;2022-09-09T13:00:03;2.97;;;2.30;;
495;SDS011;39559;48.630;9.162;2022-09-09T13:02:26;3.77;;;2.70;;
495;SDS011;39559;48.630;9.162;2022-09-09T13:04:52;2.97;;;2.67;;
495;SDS011;39559;48.630;9.162;2022-09-09T13:07:19;2.97;;;2.67;;
495;SDS011;39559;48.630;9.162;2022-09-09T13:09:47;2.90;;;2.60;;
495;SDS011;39559;48.630;9.162;2022-09-09T13:12:15;3.40;;;2.73;;
495;SDS011;39559;48.630;9.162;2022-09-09T13:14:44;3.43;;;2.60;;
495;SDS011;39559;48.630;9.162;2022-09-09T13:18:21;3.20;;;2.77;;
495;SDS011;39559;48.630;9.162;2022-09-09T13:20:50;4.27;;;2.73;;
495;SDS011;39559;48.630;9.162;2022-09-09T13:23:17;2.80;;;2.60;;
495;SDS011;39559;48.630;9.162;2022-09-09T13:25:58;3.60;;;2.60;;
495;SDS011;39559;48.630;9.162;2022-09-09T13:28:26;5.60;;;2.60;;
495;SDS011;39559;48.630;9.162;2022-09-09T13:30:56;4.20;;;3.00;;
495;SDS011;39559;48.630;9.162;2022-09-09T13:33:34;2.70;;;2.47;;
495;SDS011;39559;48.630;9.162;2022-09-09T13:36:03;3.27;;;2.90;;
495;SDS011;39559;48.630;9.162;2022-09-09T13:42:25;3.53;;;2.60;;
495;SDS011;39559;48.630;9.162;2022-09-09T13:44:53;2.80;;;2.47;;
495;SDS011;39559;48.630;9.162;2022-09-09T13:47:38;2.93;;;2.50;;
495;SDS011;39559;48.630;9.162;2022-09-09T13:52:53;2.83;;;2.60;;
495;SDS011;39559;48.630;9.162;2022-09-09T13:55:24;2.90;;;2.50;;
495;SDS011;39559;48.630;9.162;2022-09-09T13:57:55;3.20;;;2.70;;
495;SDS011;39559;48.630;9.162;2022-09-09T14:00:22;3.80;;;2.80;;
495;SDS011;39559;48.630;9.162;2022-09-09T14:02:49;3.00;;;2.70;;
495;SDS011;39559;48.630;9.162;2022-09-09T14:06:12;4.73;;;2.50;;
495;SDS011;39559;48.630;9.162;2022-09-09T14:08:38;3.30;;;2.47;;
495;SDS011;39559;48.630;9.162;2022-09-09T14:11:05;3.77;;;2.47;;
495;SDS011;39559;48.630;9.162;2022-09-09T14:13:31;2.80;;;2.60;;
495;SDS011;39559;48.630;9.162;2022-09-09T14:15:57;3.53;;;2.30;;
495;SDS011;39559;48.630;9.162;2022-09-09T14:18:23;3.00;;;2.60;;
495;SDS011;39559;48.630;9.162;2022-09-09T14:20:50;2.57;;;2.30;;
495;SDS011;39559;48.630;9.162;2022-09-09T14:23:16;4.20;;;2.60;;
495;SDS011;39559;48.630;9.162;2022-09-09T14:25:42;3.70;;;2.50;;
495;SDS011;39559;48.630;9.162;2022-09-09T14:30:06;2.73;;;2.33;;
495;SDS011;39559;48.630;9.162;2022-09-09T14:32:32;4.63;;;2.50;;
495;SDS011;39559;48.630;9.162;2022-09-09T14:34:58;2.60;;;2.40;;
495;SDS011;39559;48.630;9.162;2022-09-09T14:37:24;2.50;;;2.30;;
495;SDS011;39559;48.630;9.162;2022-09-09T14:39:49;2.50;;;2.30;;
495;SDS011;39559;48.630;9.162;2022-09-09T14:42:16;2.80;;;2.50;;
495;SDS011;39559;48.630;9.162;2022-09-09T14:44:41;4.47;;;2.30;;
495;SDS011;39559;48.630;9.162;2022-09-09T14:47:07;2.60;;;2.40;;
495;SDS011;39559;48.630;9.162;2022-09-09T14:49:34;2.73;;;2.50;;
495;SDS011;39559;48.630;9.162;2022-09-09T14:54:02;2.60;;;2.40;;
495;SDS011;39559;48.630;9.162;2022-09-09T14:56:29;3.10;;;2.80;;
495;SDS011;39559;48.630;9.162;2022-09-09T14:58:56;5.20;;;2.50;;
495;SDS011;39559;48.630;9.162;2022-09-09T15:01:24;2.57;;;2.37;;
495;SDS011;39559;48.630;9.162;2022-09-09T15:03:58;3.13;;;2.60;;
495;SDS011;39559;48.630;9.162;2022-09-09T15:06:26;3.07;;;2.60;;
495;SDS011;39559;48.630;9.162;2022-09-09T15:08:54;4.03;;;2.60;;
495;SDS011;39559;48.630;9.162;2022-09-09T15:11:25;4.67;;;2.37;;
495;SDS011;39559;48.630;9.162;2022-09-09T15:13:53;3.10;;;2.40;;
495;SDS011;39559;48.630;9.162;2022-09-09T15:17:57;2.50;;;2.30;;
495;SDS011;39559;48.630;9.162;2022-09-09T15:20:23;3.60;;;2.70;;
495;SDS011;39559;48.630;9.162;2022-09-09T15:22:48;2.60;;;2.40;;
495;SDS011;39559;48.630;9.162;2022-09-09T15:25:15;2.60;;;2.40;;
495;SDS011;39559;48.630;9.162;2022-09-09T15:27:42;5.03;;;3.20;;
495;SDS011;39559;48.630;9.162;2022-09-09T15:30:09;3.90;;;2.60;;
495;SDS011;39559;48.630;9.162;2022-09-09T15:32:35;4.40;;;2.93;;
495;SDS011;39559;48.630;9.162;2022-09-09T15:35:00;2.80;;;2.60;;
495;SDS011;39559;48.630;9.162;2022-09-09T15:37:26;3.83;;;2.70;;
495;SDS011;39559;48.630;9.162;2022-09-09T15:41:52;3.67;;;2.37;;
495;SDS011;39559;48.630;9.162;2022-09-09T15:44:18;2.60;;;2.40;;
495;SDS011;39559;48.630;9.162;2022-09-09T15:46:50;4.67;;;2.60;;
495;SDS011;39559;48.630;9.162;2022-09-09T15:49:25;2.50;;;2.30;;
495;SDS011;39559;48.630;9.162;2022-09-09T15:51:55;4.43;;;2.63;;
495;SDS011;39559;48.630;9.162;2022-09-09T15:54:22;4.30;;;2.70;;
495;SDS011;39559;48.630;9.162;2022-09-09T15:56:50;3.07;;;2.77;;
495;SDS011;39559;48.630;9.162;2022-09-09T15:59:24;3.87;;;2.40;;
495;SDS011;39559;48.630;9.162;2022-09-09T16:01:51;3.10;;;2.57;;
495;SDS011;39559;48.630;9.162;2022-09-09T16:05:50;6.13;;;2.37;;
495;SDS011;39559;48.630;9.162;2022-09-09T16:08:16;3.13;;;2.70;;
495;SDS011;39559;48.630;9.162;2022-09-09T16:10:42;2.63;;;2.43;;
495;SDS011;39559;48.630;9.162;2022-09-09T16:13:08;3.60;;;2.57;;
495;SDS011;39559;48.630;9.162;2022-09-09T16:15:33;3.37;;;2.50;;
495;SDS011;39559;48.630;9.162;2022-09-09T16:17:59;3.17;;;2.53;;
495;SDS011;39559;48.630;9.162;2022-09-09T16:20:25;3.57;;;3.10;;
495;SDS011;39559;48.630;9.162;2022-09-09T16:22:50;2.93;;;2.43;;
495;SDS011;39559;48.630;9.162;2022-09-09T16:25:16;2.60;;;2.40;;
495;SDS011;39559;48.630;9.162;2022-09-09T16:29:43;3.03;;;2.60;;
495;SDS011;39559;48.630;9.162;2022-09-09T16:32:09;2.63;;;2.37;;
495;SDS011;39559;48.630;9.162;2022-09-09T16:34:35;2.73;;;2.43;;
495;SDS011;39559;48.630;9.162;2022-09-09T16:37:00;2.73;;;2.53;;
495;SDS011;39559;48.630;9.162;2022-09-09T16:39:27;2.80;;;2.60;;
495;SDS011;39559;48.630;9.162;2022-09-09T16:41:52;2.70;;;2.50;;
495;SDS011;39559;48.630;9.162;2022-09-09T16:44:18;3.53;;;2.70;;
495;SDS011;39559;48.630;9.162;2022-09-09T16:46:45;4.33;;;2.40;;
495;SDS011;39559;48.630;9.162;2022-09-09T16:49:13;3.33;;;2.40;;
495;SDS011;39559;48.630;9.162;2022-09-09T16:53:39;2.60;;;2.40;;
495;SDS011;39559;48.630;9.162;2022-09-09T16:56:08;2.40;;;2.20;;
495;SDS011;39559;48.630;9.162;2022-09-09T16:58:43;3.90;;;2.37;;
495;SDS011;39559;48.630;9.162;2022-09-09T17:01:15;2.80;;;2.50;;
495;SDS011;39559;48.630;9.162;2022-09-09T17:03:40;3.30;;;2.67;;
495;SDS011;39559;48.630;9.162;2022-09-09T17:06:10;2.77;;;2.43;;
495;SDS011;39559;48.630;9.162;2022-09-09T17:08:37;3.20;;;2.53;;
495;SDS011;39559;48.630;9.162;2022-09-09T17:11:10;2.67;;;2.47;;
495;SDS011;39559;48.630;9.162;2022-09-09T17:13:40;2.87;;;2.50;;
495;SDS011;39559;48.630;9.162;2022-09-09T17:17:34;3.30;;;2.27;;
495;SDS011;39559;48.630;9.162;2022-09-09T17:20:00;2.60;;;2.40;;
495;SDS011;39559;48.630;9.162;2022-09-09T17:22:27;2.80;;;2.60;;
495;SDS011;39559;48.630;9.162;2022-09-09T17:24:52;4.30;;;3.27;;
495;SDS011;39559;48.630;9.162;2022-09-09T17:27:18;6.20;;;2.77;;
495;SDS011;39559;48.630;9.162;2022-09-09T17:29:43;3.20;;;2.73;;
495;SDS011;39559;48.630;9.162;2022-09-09T17:32:09;7.50;;;3.20;;
495;SDS011;39559;48.630;9.162;2022-09-09T17:34:35;3.77;;;2.60;;
495;SDS011;39559;48.630;9.162;2022-09-09T17:37:01;2.60;;;2.40;;
495;SDS011;39559;48.630;9.162;2022-09-09T17:41:31;3.23;;;2.20;;
495;SDS011;39559;48.630;9.162;2022-09-09T17:43:59;4.45;;;2.70;;
495;SDS011;39559;48.630;9.162;2022-09-09T17:46:25;4.67;;;2.50;;
495;SDS011;39559;48.630;9.162;2022-09-09T17:49:01;4.25;;;2.70;;
495;SDS011;39559;48.630;9.162;2022-09-09T17:51:32;2.80;;;2.33;;
495;SDS011;39559;48.630;9.162;2022-09-09T17:53:59;3.42;;;2.40;;
495;SDS011;39559;48.630;9.162;2022-09-09T17:56:29;4.88;;;2.40;;
495;SDS011;39559;48.630;9.162;2022-09-09T17:58:57;3.60;;;2.60;;
495;SDS011;39559;48.630;9.162;2022-09-09T18:01:24;2.80;;;2.60;;
495;SDS011;39559;48.630;9.162;2022-09-09T18:05:25;3.20;;;2.83;;
495;SDS011;39559;48.630;9.162;2022-09-09T18:07:51;3.93;;;3.63;;
495;SDS011;39559;48.630;9.162;2022-09-09T18:10:17;5.75;;;4.10;;
495;SDS011;39559;48.630;9.162;2022-09-09T18:12:43;10.97;;;4.43;;
495;SDS011;39559;48.630;9.162;2022-09-09T18:15:08;4.30;;;2.60;;
495;SDS011;39559;48.630;9.162;2022-09-09T18:17:34;6.30;;;3.13;;
495;SDS011;39559;48.630;9.162;2022-09-09T18:19:59;2.60;;;2.40;;
495;SDS011;39559;48.630;9.162;2022-09-09T18:22:25;3.40;;;3.10;;
495;SDS011;39559;48.630;9.162;2022-09-09T18:24:51;5.30;;;2.73;;
495;SDS011;39559;48.630;9.162;2022-09-09T18:29:21;3.92;;;2.90;;